createdAt,value
2023-04-18T00:00:46.376Z,102430.16
2023-04-18T00:03:18.960Z,102433.22
2023-04-18T00:05:49.923Z,102436.38
2023-04-18T00:08:19.327Z,102421.09
2023-04-18T00:10:48.995Z,102418.31
2023-04-18T00:13:19.561Z,102428.91
2023-04-18T00:15:49.188Z,102422.44
2023-04-18T00:18:21.684Z,102433.19
2023-04-18T00:20:51.413Z,102425.91
2023-04-18T00:23:21.626Z,102418.06
2023-04-18T00:25:51.121Z,102431.22
2023-04-18T00:28:20.431Z,102421.72
2023-04-18T00:30:49.787Z,102429.16
2023-04-18T00:33:21.835Z,102431.22
2023-04-18T00:35:51.651Z,102427.50
2023-04-18T00:38:21.085Z,102416.59
2023-04-18T00:40:50.617Z,102423.22
2023-04-18T00:43:20.007Z,102417.03
2023-04-18T00:45:49.398Z,102420.59
2023-04-18T00:48:21.625Z,102419.84
2023-04-18T00:50:51.058Z,102422.69
2023-04-18T00:53:20.449Z,102417.69
2023-04-18T00:55:50.702Z,102425.22
2023-04-18T00:58:20.471Z,102425.25
2023-04-18T01:00:51.275Z,102417.22
2023-04-18T01:03:24.326Z,102420.19
2023-04-18T01:05:54.029Z,102413.78
2023-04-18T01:08:24.609Z,102416.09
2023-04-18T01:10:54.113Z,102420.47
2023-04-18T01:13:23.942Z,102420.56
2023-04-18T01:15:55.879Z,102418.75
2023-04-18T01:18:28.162Z,102416.38
2023-04-18T01:21:00.824Z,102420.78
2023-04-18T01:23:30.599Z,102418.25
2023-04-18T01:26:02.858Z,102417.78
2023-04-18T01:28:32.553Z,102428.22
2023-04-18T01:31:02.054Z,102429.09
2023-04-18T01:33:31.612Z,102428.03
2023-04-18T01:36:01.036Z,102436.00
2023-04-18T01:38:30.560Z,102420.72
2023-04-18T01:41:02.592Z,102430.31
2023-04-18T01:43:32.240Z,102423.56
2023-04-18T01:46:01.584Z,102423.53
2023-04-18T01:48:31.102Z,102416.88
2023-04-18T01:51:00.429Z,102410.00
2023-04-18T01:53:29.796Z,102416.72
2023-04-18T01:56:01.893Z,102424.84
2023-04-18T01:58:31.376Z,102419.75
2023-04-18T02:01:01.000Z,102428.09
2023-04-18T02:03:30.449Z,102422.22
2023-04-18T02:06:00.035Z,102423.81
2023-04-18T02:08:30.890Z,102412.53
2023-04-18T02:11:03.843Z,102429.44
2023-04-18T02:13:33.337Z,102424.88
2023-04-18T02:16:02.737Z,102424.44
2023-04-18T02:18:34.653Z,102419.25
2023-04-18T02:21:03.952Z,102413.03
2023-04-18T02:23:33.260Z,102421.91
2023-04-18T02:26:05.155Z,102411.53
2023-04-18T02:28:35.070Z,102412.56
2023-04-18T02:31:04.419Z,102408.69
2023-04-18T02:33:36.807Z,102416.72
2023-04-18T02:36:07.084Z,102418.13
2023-04-18T02:38:36.421Z,102427.16
2023-04-18T02:41:08.417Z,102429.78
2023-04-18T02:43:37.777Z,102427.38
2023-04-18T02:46:07.446Z,102427.34
2023-04-18T02:48:36.816Z,102432.22
2023-04-18T02:51:09.746Z,102439.03
2023-04-18T02:53:39.106Z,102435.19
2023-04-18T02:56:11.911Z,102432.72
2023-04-18T02:58:41.245Z,102441.28
2023-04-18T03:01:10.657Z,102437.41
2023-04-18T03:03:40.056Z,102431.50
2023-04-18T03:06:09.726Z,102439.22
2023-04-18T03:08:39.250Z,102437.38
2023-04-18T03:11:11.540Z,102438.44
2023-04-18T03:13:41.368Z,102438.41
2023-04-18T03:16:11.674Z,102450.09
2023-04-18T03:18:41.007Z,102449.44
2023-04-18T03:21:10.421Z,102439.41
2023-04-18T03:23:39.892Z,102456.69
2023-04-18T03:26:13.166Z,102452.63
2023-04-18T03:28:42.716Z,102451.88
2023-04-18T03:31:13.038Z,102448.47
2023-04-18T03:33:42.482Z,102451.94
2023-04-18T03:36:11.986Z,102447.44
2023-04-18T03:38:41.634Z,102447.00
2023-04-18T03:41:14.094Z,102453.91
2023-04-18T03:43:43.440Z,102455.09
2023-04-18T03:46:12.885Z,102451.81
2023-04-18T03:48:42.258Z,102461.91
2023-04-18T03:51:11.778Z,102454.00
2023-04-18T03:53:41.146Z,102462.72
2023-04-18T03:56:13.350Z,102465.47
2023-04-18T03:58:42.758Z,102465.03
2023-04-18T04:01:12.933Z,102464.19
2023-04-18T04:03:42.515Z,102462.66
2023-04-18T04:06:12.360Z,102467.28
2023-04-18T04:08:42.189Z,102472.38
2023-04-18T04:11:14.318Z,102478.09
2023-04-18T04:13:43.707Z,102467.97
2023-04-18T04:16:13.168Z,102467.59
2023-04-18T04:18:42.593Z,102468.25
2023-04-18T04:21:11.935Z,102474.56
2023-04-18T04:23:42.077Z,102475.69
2023-04-18T04:26:15.188Z,102475.22
2023-04-18T04:28:46.729Z,102480.47
2023-04-18T04:31:17.212Z,102480.91
2023-04-18T04:33:46.763Z,102479.94
2023-04-18T04:36:19.208Z,102482.81
2023-04-18T04:38:48.678Z,102482.91
2023-04-18T04:41:21.003Z,102479.81
2023-04-18T04:43:51.372Z,102491.31
2023-04-18T04:46:23.297Z,102499.81
2023-04-18T04:48:54.606Z,102492.50
2023-04-18T04:51:24.037Z,102496.47
2023-04-18T04:53:53.494Z,102504.88
2023-04-18T04:56:25.940Z,102500.09
2023-04-18T04:58:56.344Z,102510.34
2023-04-18T05:01:26.060Z,102503.31
2023-04-18T05:03:55.560Z,102503.38
2023-04-18T05:06:25.019Z,102513.03
2023-04-18T05:08:54.995Z,102517.34
2023-04-18T05:11:26.914Z,102516.53
2023-04-18T05:13:56.315Z,102512.53
2023-04-18T05:16:25.909Z,102514.94
2023-04-18T05:18:55.513Z,102511.06
2023-04-18T05:21:26.317Z,102515.97
2023-04-18T05:23:56.012Z,102510.63
2023-04-18T05:26:27.998Z,102516.63
2023-04-18T05:28:57.389Z,102509.59
2023-04-18T05:31:26.976Z,102522.81
2023-04-18T05:33:56.714Z,102518.47
2023-04-18T05:36:26.844Z,102524.38
2023-04-18T05:38:56.228Z,102527.53
2023-04-18T05:41:28.132Z,102522.97
2023-04-18T05:44:16.950Z,102529.19
2023-04-18T05:46:46.464Z,102530.25
2023-04-18T05:49:15.840Z,102527.59
2023-04-18T05:51:45.212Z,102530.38
2023-04-18T05:54:14.959Z,102529.53
2023-04-18T05:56:47.641Z,102541.59
2023-04-18T05:59:17.027Z,102546.34
2023-04-18T06:01:47.249Z,102551.00
2023-04-18T06:04:17.065Z,102550.56
2023-04-18T06:06:46.710Z,102552.09
2023-04-18T06:09:16.031Z,102552.44
2023-04-18T06:11:48.058Z,102545.53
2023-04-18T06:14:17.373Z,102548.69
2023-04-18T06:16:46.700Z,102543.03
2023-04-18T06:19:16.082Z,102541.59
2023-04-18T06:21:45.801Z,102545.03
2023-04-18T06:24:15.397Z,102544.91
2023-04-18T06:26:45.111Z,102550.28
2023-04-18T06:29:18.228Z,102536.88
2023-04-18T06:31:48.507Z,102529.66
2023-04-18T06:34:18.185Z,102523.81
2023-04-18T06:36:47.667Z,102535.47
2023-04-18T06:39:17.001Z,102546.28
2023-04-18T06:41:46.359Z,102545.66
2023-04-18T06:44:18.417Z,102547.13
2023-04-18T06:46:48.190Z,102548.97
2023-04-18T06:49:17.573Z,102539.06
2023-04-18T06:51:46.924Z,102553.22
2023-04-18T06:54:16.309Z,102546.13
2023-04-18T06:56:45.778Z,102546.66
2023-04-18T06:59:17.688Z,102543.50
2023-04-18T07:01:47.093Z,102547.59
2023-04-18T07:04:16.616Z,102555.72
2023-04-18T07:06:46.186Z,102554.63
2023-04-18T07:09:15.545Z,102549.16
2023-04-18T07:11:44.948Z,102554.44
2023-04-18T07:14:14.929Z,102550.09
2023-04-18T07:16:47.047Z,102553.69
2023-04-18T07:19:16.469Z,102558.94
2023-04-18T07:21:46.148Z,102557.22
2023-04-18T07:24:15.748Z,102548.41
2023-04-18T07:26:45.559Z,102556.06
2023-04-18T07:29:14.869Z,102563.13
2023-04-18T07:31:46.797Z,102551.56
2023-04-18T07:34:17.460Z,102554.88
2023-04-18T07:36:46.908Z,102563.59
2023-04-18T07:39:16.223Z,102562.19
2023-04-18T07:41:45.556Z,102567.09
2023-04-18T07:44:15.013Z,102558.78
2023-04-18T07:46:47.277Z,102566.16
2023-04-18T07:49:16.851Z,102566.38
2023-04-18T07:51:46.278Z,102561.44
2023-04-18T07:54:15.868Z,102560.94
2023-04-18T07:56:45.247Z,102559.94
2023-04-18T07:59:14.859Z,102562.38
2023-04-18T08:01:46.895Z,102566.22
2023-04-18T08:04:16.470Z,102562.00
2023-04-18T08:06:45.969Z,102562.69
2023-04-18T08:09:15.663Z,102556.88
2023-04-18T08:11:45.484Z,102554.94
2023-04-18T08:14:15.087Z,102555.91
2023-04-18T08:16:47.063Z,102564.66
2023-04-18T08:19:16.613Z,102565.53
2023-04-18T08:21:46.135Z,102556.94
2023-04-18T08:24:15.603Z,102557.22
2023-04-18T08:26:44.907Z,102548.91
2023-04-18T08:29:14.753Z,102559.69
2023-04-18T08:31:46.799Z,102563.47
2023-04-18T08:34:16.175Z,102568.16
2023-04-18T08:36:45.909Z,102564.56
2023-04-18T08:39:15.436Z,102566.41
2023-04-18T08:41:47.105Z,102562.50
2023-04-18T08:44:17.702Z,102564.75
2023-04-18T08:46:49.595Z,102565.94
2023-04-18T08:49:22.710Z,102569.06
2023-04-18T08:51:53.364Z,102565.09
2023-04-18T08:54:24.629Z,102578.28
2023-04-18T08:57:07.553Z,102575.91
2023-04-18T08:59:37.210Z,102561.38
2023-04-18T09:02:10.314Z,102559.59
2023-04-18T09:04:41.230Z,102570.03
2023-04-18T09:07:13.001Z,102569.00
2023-04-18T09:09:46.929Z,102575.59
2023-04-18T09:12:18.404Z,102571.56
2023-04-18T09:14:51.187Z,102574.69
2023-04-18T09:17:41.818Z,102580.44
2023-04-18T09:20:12.748Z,102584.66
2023-04-18T09:22:48.782Z,102583.84
2023-04-18T09:25:29.359Z,102584.31
2023-04-18T09:28:01.141Z,102586.13
2023-04-18T09:30:48.771Z,102590.19
2023-04-18T09:33:20.886Z,102588.00
2023-04-18T09:35:51.982Z,102587.31
2023-04-18T09:38:21.364Z,102590.44
2023-04-18T09:41:09.969Z,102593.13
2023-04-18T09:43:39.523Z,102585.25
2023-04-18T09:46:11.093Z,102587.22
2023-04-18T09:48:44.139Z,102585.78
2023-04-18T09:51:17.441Z,102594.00
2023-04-18T09:53:47.909Z,102589.78
2023-04-18T09:56:25.854Z,102583.69
2023-04-18T09:58:59.825Z,102582.88
2023-04-18T10:01:31.204Z,102584.28
2023-04-18T10:04:06.557Z,102570.88
2023-04-18T10:06:39.823Z,102577.59
2023-04-18T10:09:12.203Z,102576.69
2023-04-18T10:11:42.080Z,102569.22
2023-04-18T10:14:15.649Z,102577.50
2023-04-18T10:16:49.904Z,102581.28
2023-04-18T10:19:27.768Z,102577.84
2023-04-18T10:21:58.424Z,102578.31
2023-04-18T10:24:57.849Z,102566.47
2023-04-18T10:28:01.500Z,102574.34
2023-04-18T10:30:54.280Z,102565.31
2023-04-18T10:33:33.781Z,102566.72
2023-04-18T10:36:08.573Z,102560.56
2023-04-18T10:38:45.485Z,102561.59
2023-04-18T10:41:16.906Z,102562.84
2023-04-18T10:44:13.417Z,102562.28
2023-04-18T10:46:45.064Z,102562.06
2023-04-18T10:49:18.526Z,102560.81
2023-04-18T10:51:51.649Z,102558.34
2023-04-18T10:54:31.795Z,102550.47
2023-04-18T10:57:03.578Z,102559.19
2023-04-18T10:59:34.310Z,102559.81
2023-04-18T11:02:08.191Z,102561.84
2023-04-18T11:04:38.125Z,102562.53
2023-04-18T11:07:10.144Z,102556.69
2023-04-18T11:09:39.461Z,102560.03
2023-04-18T11:12:10.683Z,102565.84
2023-04-18T11:14:43.708Z,102554.66
2023-04-18T11:17:23.868Z,102548.41
2023-04-18T11:19:53.972Z,102547.16
2023-04-18T11:22:26.051Z,102546.19
2023-04-18T11:25:00.141Z,102542.88
2023-04-18T11:27:29.525Z,102539.34
2023-04-18T11:30:00.646Z,102535.44
2023-04-18T11:32:30.085Z,102547.22
2023-04-18T11:34:59.656Z,102538.56
2023-04-18T11:37:32.486Z,102543.50
2023-04-18T11:40:02.027Z,102544.97
2023-04-18T11:42:35.474Z,102539.81
2023-04-18T11:45:06.110Z,102538.72
2023-04-18T11:47:37.026Z,102537.53
2023-04-18T11:50:08.362Z,102539.81
2023-04-18T11:52:42.627Z,102543.13
2023-04-18T11:55:17.965Z,102536.28
2023-04-18T11:57:54.456Z,102532.31
2023-04-18T12:00:35.124Z,102547.72
2023-04-18T12:03:08.922Z,102545.00
2023-04-18T12:05:41.211Z,102536.50
2023-04-18T12:08:15.201Z,102543.56
2023-04-18T12:10:50.665Z,102529.66
2023-04-18T12:13:20.691Z,102538.97
2023-04-18T12:15:50.101Z,102535.03
2023-04-18T12:18:21.561Z,102530.25
2023-04-18T12:20:54.919Z,102534.00
2023-04-18T12:23:42.923Z,102535.88
2023-04-18T12:26:18.262Z,102532.34
2023-04-18T12:28:48.507Z,102533.16
2023-04-18T12:31:17.947Z,102538.16
2023-04-18T12:33:47.290Z,102524.84
2023-04-18T12:36:16.774Z,102526.75
2023-04-18T12:38:49.198Z,102528.19
2023-04-18T12:41:19.515Z,102527.75
2023-04-18T12:43:48.862Z,102531.50
2023-04-18T12:46:18.202Z,102515.72
2023-04-18T12:48:47.523Z,102519.06
2023-04-18T12:51:16.895Z,102514.50
2023-04-18T12:53:48.773Z,102523.22
2023-04-18T12:56:18.177Z,102516.56
2023-04-18T12:58:47.497Z,102519.88
2023-04-18T13:01:17.249Z,102519.06
2023-04-18T13:03:53.482Z,102509.94
2023-04-18T13:06:29.524Z,102514.66
2023-04-18T13:09:01.505Z,102513.59
2023-04-18T13:11:30.983Z,102518.41
2023-04-18T13:14:00.299Z,102508.00
2023-04-18T13:16:29.691Z,102512.41
2023-04-18T13:18:59.092Z,102514.44
2023-04-18T13:21:28.395Z,102511.56
2023-04-18T13:23:57.690Z,102519.25
2023-04-18T13:26:29.615Z,102516.56
2023-04-18T13:28:59.109Z,102517.78
2023-04-18T13:31:28.609Z,102520.69
2023-04-18T13:33:57.959Z,102520.44
2023-04-18T13:36:27.830Z,102509.91
2023-04-18T13:38:57.726Z,102514.84
2023-04-18T13:41:29.990Z,102510.09
2023-04-18T13:43:59.320Z,102503.25
2023-04-18T13:46:29.288Z,102504.69
2023-04-18T13:48:58.704Z,102504.88
2023-04-18T13:51:28.393Z,102503.00
2023-04-18T13:53:57.701Z,102501.56
2023-04-18T13:56:29.834Z,102497.66
2023-04-18T13:58:59.190Z,102502.59
2023-04-18T14:01:28.667Z,102499.72
2023-04-18T14:04:00.986Z,102492.47
2023-04-18T14:06:30.632Z,102488.44
2023-04-18T14:09:00.208Z,102494.50
2023-04-18T14:11:32.155Z,102491.59
2023-04-18T14:14:01.503Z,102499.91
2023-04-18T14:16:33.490Z,102497.66
2023-04-18T14:19:03.759Z,102499.50
2023-04-18T14:21:33.191Z,102496.16
2023-04-18T14:24:02.536Z,102492.41
2023-04-18T14:26:34.506Z,102495.28
2023-04-18T14:29:04.463Z,102498.22
2023-04-18T14:31:33.845Z,102487.84
2023-04-18T14:34:03.240Z,102488.44
2023-04-18T14:36:32.778Z,102490.69
2023-04-18T14:39:02.566Z,102489.84
2023-04-18T14:41:34.481Z,102493.38
2023-04-18T14:44:04.204Z,102492.28
2023-04-18T14:46:33.586Z,102483.00
2023-04-18T14:49:02.953Z,102487.78
2023-04-18T14:51:32.307Z,102483.22
2023-04-18T14:54:01.713Z,102486.78
2023-04-18T14:56:33.650Z,102487.44
2023-04-18T14:59:03.390Z,102484.63
2023-04-18T15:01:32.744Z,102487.19
2023-04-18T15:04:04.416Z,102488.59
2023-04-18T15:06:33.866Z,102486.38
2023-04-18T15:09:03.180Z,102476.34
2023-04-18T15:11:35.097Z,102483.38
2023-04-18T15:14:04.597Z,102482.56
2023-04-18T15:16:35.416Z,102479.03
2023-04-18T15:19:04.771Z,102473.25
2023-04-18T15:21:34.119Z,102473.06
2023-04-18T15:24:03.510Z,102475.91
2023-04-18T15:26:35.723Z,102474.91
2023-04-18T15:29:05.541Z,102477.81
2023-04-18T15:31:36.210Z,102470.75
2023-04-18T15:34:07.284Z,102469.94
2023-04-18T15:36:36.849Z,102472.81
2023-04-18T15:39:06.862Z,102470.34
2023-04-18T15:41:42.250Z,102470.41
2023-04-18T15:44:11.967Z,102469.38
2023-04-18T15:46:41.957Z,102470.41
2023-04-18T15:49:11.325Z,102479.34
2023-04-18T15:51:40.628Z,102476.84
2023-04-18T15:54:10.196Z,102469.56
2023-04-18T15:56:43.986Z,102469.56
2023-04-18T15:59:13.844Z,102474.16
2023-04-18T16:01:45.669Z,102473.19
2023-04-18T16:04:15.742Z,102474.78
2023-04-18T16:06:45.301Z,102472.31
2023-04-18T16:09:14.726Z,102477.44
2023-04-18T16:11:46.924Z,102475.16
2023-04-18T16:14:16.460Z,102479.34
2023-04-18T16:16:46.009Z,102476.25
2023-04-18T16:19:15.545Z,102475.41
2023-04-18T16:21:47.049Z,102477.66
2023-04-18T16:24:17.781Z,102476.84
2023-04-18T16:26:49.676Z,102480.13
2023-04-18T16:29:19.039Z,102481.59
2023-04-18T16:31:48.421Z,102481.97
2023-04-18T16:34:18.048Z,102478.47
2023-04-18T16:36:49.643Z,102478.28
2023-04-18T16:39:20.068Z,102479.97
2023-04-18T16:41:52.054Z,102481.88
2023-04-18T16:44:21.353Z,102476.88
2023-04-18T16:46:50.708Z,102487.25
2023-04-18T16:49:20.662Z,102488.25
2023-04-18T16:51:50.064Z,102485.53
2023-04-18T16:54:19.369Z,102485.75
2023-04-18T16:56:48.807Z,102487.88
2023-04-18T16:59:20.980Z,102486.88
2023-04-18T17:01:50.442Z,102490.56
2023-04-18T17:04:19.824Z,102490.75
2023-04-18T17:06:50.961Z,102493.03
2023-04-18T17:09:21.451Z,102487.88
2023-04-18T17:11:50.768Z,102489.50
2023-04-18T17:14:22.857Z,102495.75
2023-04-18T17:16:53.741Z,102491.81
2023-04-18T17:19:23.342Z,102494.94
2023-04-18T17:21:53.157Z,102500.28
2023-04-18T17:24:22.680Z,102499.91
2023-04-18T17:26:52.651Z,102508.00
2023-04-18T17:29:24.789Z,102497.22
2023-04-18T17:31:55.531Z,102499.09
2023-04-18T17:34:24.864Z,102497.84
2023-04-18T17:36:54.181Z,102504.50
2023-04-18T17:39:23.507Z,102510.31
2023-04-18T17:41:52.852Z,102513.19
2023-04-18T17:44:24.783Z,102505.75
2023-04-18T17:46:54.101Z,102510.13
2023-04-18T17:49:23.829Z,102519.22
2023-04-18T17:51:53.183Z,102525.06
2023-04-18T17:54:22.509Z,102519.66
2023-04-18T17:56:51.808Z,102532.72
2023-04-18T17:59:23.821Z,102526.69
2023-04-18T18:01:53.186Z,102536.47
2023-04-18T18:04:25.835Z,102528.59
2023-04-18T18:06:56.947Z,102523.63
2023-04-18T18:09:26.820Z,102529.84
2023-04-18T18:11:56.201Z,102538.13
2023-04-18T18:14:29.396Z,102534.81
2023-04-18T18:16:58.817Z,102538.53
2023-04-18T18:19:28.357Z,102547.22
2023-04-18T18:21:57.721Z,102545.81
2023-04-18T18:24:27.583Z,102546.03
2023-04-18T18:26:59.712Z,102547.88
2023-04-18T18:29:31.600Z,102548.13
2023-04-18T18:32:00.959Z,102559.31
2023-04-18T18:34:32.106Z,102551.81
2023-04-18T18:37:03.729Z,102559.31
2023-04-18T18:39:33.040Z,102559.31
2023-04-18T18:42:06.267Z,102568.44
2023-04-18T18:44:38.169Z,102568.44
2023-04-18T18:47:07.559Z,102566.97
2023-04-18T18:49:36.874Z,102570.88
2023-04-18T18:52:06.829Z,102573.81
2023-04-18T18:54:36.799Z,102572.53
2023-04-18T18:57:06.258Z,102584.78
2023-04-18T18:59:38.230Z,102581.88
2023-04-18T19:02:07.717Z,102584.13
2023-04-18T19:04:37.220Z,102582.09
2023-04-18T19:07:09.903Z,102596.81
2023-04-18T19:09:39.441Z,102599.06
2023-04-18T19:12:10.071Z,102599.84
2023-04-18T19:14:42.512Z,102605.72
2023-04-18T19:17:11.941Z,102606.28
2023-04-18T19:19:42.124Z,102614.59
2023-04-18T19:22:11.549Z,102612.09
2023-04-18T19:24:40.869Z,102602.28
2023-04-18T19:27:10.217Z,102610.81
2023-04-18T19:29:42.248Z,102619.19
2023-04-18T19:32:11.790Z,102618.16
2023-04-18T19:34:41.507Z,102617.13
2023-04-18T19:37:10.831Z,102620.41
2023-04-18T19:39:40.153Z,102619.63
2023-04-18T19:42:09.528Z,102625.88
2023-04-18T19:44:38.843Z,102620.00
2023-04-18T19:47:11.037Z,102614.00
2023-04-18T19:49:40.494Z,102617.13
2023-04-18T19:52:09.839Z,102624.25
2023-04-18T19:54:39.158Z,102622.63
2023-04-18T19:57:08.484Z,102612.25
2023-04-18T19:59:37.819Z,102623.22
2023-04-18T20:02:09.809Z,102613.50
2023-04-18T20:04:40.836Z,102616.16
2023-04-18T20:07:10.343Z,102615.31
2023-04-18T20:09:39.808Z,102621.50
2023-04-18T20:12:09.136Z,102612.22
2023-04-18T20:14:38.457Z,102618.13
2023-04-18T20:17:10.471Z,102620.19
2023-04-18T20:19:39.959Z,102618.63
2023-04-18T20:22:09.519Z,102622.53
2023-04-18T20:24:39.369Z,102625.41
2023-04-18T20:27:08.730Z,102620.97
2023-04-18T20:29:38.075Z,102629.13
2023-04-18T20:32:10.133Z,102617.41
2023-04-18T20:34:39.435Z,102621.81
2023-04-18T20:37:10.191Z,102627.66
2023-04-18T20:39:40.000Z,102621.81
2023-04-18T20:42:14.312Z,102628.28
2023-04-18T20:44:47.615Z,102635.50
2023-04-18T20:47:19.574Z,102631.47
2023-04-18T20:49:49.006Z,102638.06
2023-04-18T20:52:18.426Z,102633.56
2023-04-18T20:54:47.779Z,102638.22
2023-04-18T20:57:17.118Z,102632.72
2023-04-18T20:59:46.437Z,102646.31
2023-04-18T21:02:15.981Z,102640.50
2023-04-18T21:04:52.176Z,102639.53
2023-04-18T21:07:21.722Z,102649.19
2023-04-18T21:09:51.068Z,102643.84
2023-04-18T21:12:20.552Z,102652.59
2023-04-18T21:14:50.152Z,102659.06
2023-04-18T21:17:19.684Z,102656.22
2023-04-18T21:19:54.286Z,102652.41
2023-04-18T21:22:26.494Z,102652.53
2023-04-18T21:24:56.258Z,102656.75
2023-04-18T21:27:25.922Z,102660.16
2023-04-18T21:29:55.289Z,102658.84
2023-04-18T21:32:24.803Z,102650.94
2023-04-18T21:34:58.342Z,102652.66
2023-04-18T21:37:27.859Z,102655.41
2023-04-18T21:39:57.153Z,102657.97
2023-04-18T21:42:29.105Z,102659.34
2023-04-18T21:44:58.464Z,102658.72
2023-04-18T21:47:27.814Z,102656.56
2023-04-18T21:49:59.732Z,102652.53
2023-04-18T21:52:29.048Z,102647.91
2023-04-18T21:54:59.358Z,102652.41
2023-04-18T21:57:28.707Z,102648.91
2023-04-18T22:00:00.029Z,102648.81
2023-04-18T22:02:29.957Z,102650.84
2023-04-18T22:05:03.011Z,102656.84
2023-04-18T22:07:32.425Z,102654.09
2023-04-18T22:10:05.922Z,102651.25
2023-04-18T22:12:35.386Z,102641.28
2023-04-18T22:15:05.524Z,102651.47
2023-04-18T22:17:35.125Z,102645.25
2023-04-18T22:20:08.752Z,102641.63
2023-04-18T22:22:38.058Z,102636.97
2023-04-18T22:25:11.514Z,102638.78
2023-04-18T22:27:42.658Z,102640.88
2023-04-18T22:30:13.401Z,102634.06
2023-04-18T22:32:42.844Z,102642.13
2023-04-18T22:35:14.897Z,102644.81
2023-04-18T22:37:44.236Z,102641.31
2023-04-18T22:40:14.493Z,102643.94
2023-04-18T22:42:43.820Z,102640.69
2023-04-18T22:45:14.768Z,102635.03
2023-04-18T22:47:44.163Z,102633.00
2023-04-18T22:50:16.483Z,102632.09
2023-04-18T22:52:45.808Z,102634.53
2023-04-18T22:55:16.638Z,102636.38
2023-04-18T22:57:46.011Z,102633.56
2023-04-18T23:00:17.693Z,102636.00
2023-04-18T23:02:47.192Z,102643.06
2023-04-18T23:05:19.162Z,102631.09
2023-04-18T23:07:48.480Z,102634.50
2023-04-18T23:10:17.792Z,102630.94
2023-04-18T23:12:47.119Z,102637.09
2023-04-18T23:15:16.616Z,102634.38
2023-04-18T23:17:46.045Z,102630.94
2023-04-18T23:20:16.202Z,102635.13
2023-04-18T23:22:50.094Z,102633.78
2023-04-18T23:25:19.782Z,102638.47
2023-04-18T23:27:49.726Z,102632.06
2023-04-18T23:30:19.063Z,102631.09
2023-04-18T23:32:48.452Z,102633.13
2023-04-18T23:35:17.791Z,102630.09
2023-04-18T23:37:50.271Z,102630.78
2023-04-18T23:40:19.812Z,102620.63
2023-04-18T23:42:49.146Z,102627.94
2023-04-18T23:45:18.531Z,102616.00
2023-04-18T23:47:47.994Z,102618.03
2023-04-18T23:50:17.652Z,102612.56
2023-04-18T23:52:49.534Z,102621.75
2023-04-18T23:55:19.669Z,102611.97
2023-04-18T23:57:49.029Z,102613.06
